Flight Track Log - Related Links

Times and Time Zones

All times are in EDT time to prevent confusion due to time zone crossing. See the CCA1293 flight status page for this flight to view local times or setup timezone preferences in your user account.

Time Position Orientation Groundspeed Altitude Reporting Facility
EDT Latitude Longitude Course Direction KTS MPH feet Rate Location/Type
Thu 04:00:00 AM 39.5325 82.3905 223° Southwest  Level Estimated
Thu 04:01:00 AM 39.4410 82.2937 219° Southwest  Level Estimated
Thu 04:02:00 AM 39.3494 82.1971 219° Southwest  Level Estimated
Thu 04:03:00 AM 39.2578 82.1008 219° Southwest  Level Estimated
Thu 04:04:00 AM 39.1660 82.0048 219° Southwest  Level Estimated
Thu 04:05:00 AM 39.0742 81.9089 219° Southwest  Level Estimated
Thu 04:06:00 AM 38.9823 81.8134 219° Southwest  Level Estimated
Thu 04:07:00 AM 38.8904 81.7180 219° Southwest  Level Estimated
Thu 04:08:00 AM 38.7983 81.6230 219° Southwest  Level Estimated
Thu 04:09:00 AM 38.7062 81.5281 219° Southwest  Level Estimated
Thu 04:10:00 AM 38.6140 81.4336 219° Southwest  Level Estimated
Thu 04:11:00 AM 38.5217 81.3392 219° Southwest  Level Estimated
Thu 04:12:00 AM 38.4294 81.2451 219° Southwest  Level Estimated
Thu 04:13:00 AM 38.3369 81.1513 219° Southwest  Level Estimated
Thu 04:14:00 AM 38.2444 81.0576 218° Southwest  Level Estimated
Thu 04:15:00 AM 38.1518 80.9643 218° Southwest  Level Estimated
Thu 04:16:00 AM 38.0592 80.8711 218° Southwest  Level Estimated
Thu 04:17:00 AM 37.9665 80.7782 218° Southwest  Level Estimated
Thu 04:18:00 AM 37.8737 80.6855 218° Southwest  Level Estimated
Thu 04:19:00 AM 37.7808 80.5931 218° Southwest  Level Estimated
Thu 04:20:00 AM 37.6879 80.5009 218° Southwest  Level Estimated
Thu 04:21:00 AM 37.5948 80.4089 218° Southwest  Level Estimated
Thu 04:22:00 AM 37.5018 80.3172 218° Southwest  Level Estimated
Thu 04:23:00 AM 37.4086 80.2256 218° Southwest  Level Estimated
Thu 04:24:00 AM 37.3154 80.1344 218° Southwest  Level Estimated
Thu 04:25:00 AM 37.2221 80.0433 218° Southwest  Level Estimated
Thu 04:26:00 AM 37.1287 79.9524 218° Southwest  Level Estimated
Thu 04:27:00 AM 37.0385 79.8649 218° Southwest  Level Estimated
Thu 04:28:00 AM 37.0385 79.8649 50° Northeast  Level Estimated
Thu 04:29:00 AM 37.0385 79.8649 50° Northeast  Level Estimated
Thu 04:30:00 AM 37.0385 79.8649 50° Northeast  Level Estimated
Thu 04:31:00 AM 37.0385 79.8649 50° Northeast  Level Estimated
Thu 04:32:00 AM 37.0385 79.8649 50° Northeast  Level Estimated
Thu 04:33:00 AM 37.0385 79.8649 50° Northeast  Level Estimated
Thu 04:34:00 AM 37.0385 79.8649 50° Northeast  Level Estimated
Thu 04:35:00 AM 37.0385 79.8649 50° Northeast  Level Estimated
Thu 04:36:00 AM 37.0385 79.8649 50° Northeast  Level Estimated
Thu 04:37:00 AM 37.0385 79.8649 50° Northeast  Level Estimated
Thu 04:38:00 AM 37.0385 79.8649 50° Northeast  Level Estimated
Thu 04:39:00 AM 37.0385 79.8649 50° Northeast  Level Estimated
Thu 04:40:00 AM 37.0385 79.8649 50° Northeast  Level Estimated
Thu 04:41:00 AM 37.0385 79.8649 50° Northeast  Level Estimated
Thu 04:42:00 AM 37.0385 79.8649 50° Northeast  Level Estimated
Thu 04:43:00 AM 37.0385 79.8649 50° Northeast  Level Estimated

Login

Don't have an account? Register now (free) for customized features, flight alerts, and more!